青島 の空港の天気 - METARとTAF

青島流亭国際空港 ( ZSQD / TAO ) - 中国 山東省青島市
飛行場実況気象(Metar)
観測時間10/18 08:00 CST (10/18 00:00 UTC)
風向・風速北 3m/s
視程10km以上
天気現象
なし
気温11℃
湿度62%
気圧1025hPa
METARZSQD 180000Z 35003MPS CAVOK 11/04 Q1025 NOSIG
過去の天気等 Google飛行場航空写真 Wunderground天気予報

過去48時間のMETAR

飛行場予報(TAF)
発表時間: 10/18 03:12 CST (10/17 19:12 UTC)
予報対象時間: 18日8時 CST ~ 19日8時 CST
風向・風速北 4m/s
視程10km以上
なし
TAF ZSQD 171912Z 1800/1824 36004MPS CAVOK TX18/1806Z TN04/1821Z